Rock, Michigan
Current Conditions -  °F | °C
As of 8:50 PM on Friday 21 Nov 2014 (Local Time) from KSAW Reporting Station
Clear Clear  
Wind Chill:   Ceiling: Unl
Heat Index: 19°   Visibility: 10mi
Dew Point: 10°   Wind: 20mph
Humidity: 68%   Direction: 190°S
Pressure: 29.95"   Gusts: NA
Location:  46.07°N, 87.17°W
Report Text: KSAW 220150Z 19017KT 10SM SKC M07/M12 A2995
Loading
Personal Weather Stations






























Interactive Weather Map New forecast layout! Learn more

10-Day Weather Forecast

Advertisements
Track Severe Weather on mobile